Terminal Aerodrome Forecast
Issued by NWS

Home | Current Version | Previous Version | Text Only | Print | Product List | Glossary Off
Versions: 1 2 3 4 5 6 7 8 9 10 11 12 13 14 15 16 17 18 19

000
FTUS43 KGRB 291720
TAFAUW
TAF
KAUW 291720Z 2918/3018 17004KT P6SM BKN010
     FM300100 VRB03KT P6SM SCT015
     FM300500 00000KT 5SM BR SCT004 BKN015
      TEMPO 3009/3013 1SM BR OVC004
     FM301500 21006KT P6SM BKN015=

USA.gov is the U.S. government's official web portal to all federal, state and local government web resources and services.